Terminal Aerodrome Forecast
Issued by NWS

Home | Current Version | Previous Version | Text Only | Print | Product List | Glossary On
Versions: 1 2 3 4 5 6 7 8 9 10 11 12 13 14 15 16
000
FTUS45 KPSR 191621 AAA
TAFBLH
TAF AMD
KBLH 191621Z 1916/2012 18006KT P6SM SCT030 BKN080
      TEMPO 1916/1918 BKN030 OVC080
     FM191800 19005KT P6SM FEW060=

USA.gov is the U.S. government's official web portal to all federal, state and local government web resources and services.